Time;durP1;ratioP1;P1;durP2;ratioP2;P2;SDS_P1;SDS_P2;PMS_P1;PMS_P2;Temp;Humidity;BMP_temperature;BMP_pressure;BME280_temperature;BME280_humidity;BME280_pressure;Samples;Min_cycle;Max_cycle;Signal;HPM_P1;HPM_P2
2022/11/13 00:02:17;;;;;;;;;;;8.70;99.90;;;;;;7339113;19;108409;-81
2022/11/13 00:04:44;;;;;;;;;;;8.70;99.90;;;;;;7341412;19;109156;-81
2022/11/13 00:07:11;;;;;;;;;;;8.60;99.90;;;;;;7341548;19;110341;-81
2022/11/13 00:09:38;;;;;;;;;;;8.60;99.90;;;;;;7339883;19;108449;-81
2022/11/13 00:12:04;;;;;;;;;;;8.60;99.90;;;;;;7362176;19;113189;-81
2022/11/13 00:14:31;;;;;;;;;;;8.60;99.90;;;;;;7382764;19;108153;-80
2022/11/13 00:16:58;;;;;;;;;;;8.50;99.90;;;;;;7376992;19;109648;-81
2022/11/13 00:19:25;;;;;;;;;;;8.50;99.90;;;;;;7376694;19;112142;-81
2022/11/13 00:21:53;;;;;;;;;;;8.50;99.90;;;;;;7375744;19;108010;-81
2022/11/13 00:24:24;;;;;;;;;;;8.40;99.90;;;;;;7375292;19;119311;-81
2022/11/13 00:26:51;;;;;;;;;;;8.40;99.90;;;;;;7377533;19;108821;-81
2022/11/13 00:29:18;;;;;;;;;;;8.40;99.90;;;;;;7376955;19;107887;-80
2022/11/13 00:31:44;;;;;;;;;;;8.30;99.90;;;;;;7370592;19;111254;-80
2022/11/13 00:34:11;;;;;;;;;;;8.20;99.90;;;;;;7339054;19;109207;-80
2022/11/13 00:36:58;;;;;;;;;;;8.20;99.90;;;;;;7342960;19;108658;-80
2022/11/13 00:39:25;;;;;;;;;;;8.20;99.90;;;;;;7336703;19;110204;-80
2022/11/13 00:41:52;;;;;;;;;;;8.20;99.90;;;;;;7338350;19;108983;-80
2022/11/13 00:44:19;;;;;;;;;;;8.10;99.90;;;;;;7337339;19;109712;-80
2022/11/13 00:46:46;;;;;;;;;;;8.10;99.90;;;;;;7336510;19;110229;-80
2022/11/13 00:49:13;;;;;;;;;;;8.20;99.90;;;;;;7340213;19;108860;-80
2022/11/13 00:51:40;;;;;;;;;;;8.10;99.90;;;;;;7337888;19;111498;-80
2022/11/13 00:54:07;;;;;;;;;;;8.20;99.90;;;;;;7336874;19;114282;-80
2022/11/13 00:56:33;;;;;;;;;;;8.10;99.90;;;;;;7342544;19;109138;-80
2022/11/13 00:59:00;;;;;;;;;;;8.10;99.90;;;;;;7336551;19;109397;-80
2022/11/13 01:01:27;;;;;;;;;;;8.10;99.90;;;;;;7338655;19;108977;-80
2022/11/13 01:03:54;;;;;;;;;;;8.10;99.90;;;;;;7335700;19;110460;-80
2022/11/13 01:06:23;;;;;;;;;;;8.20;99.90;;;;;;7341573;19;112307;-80
2022/11/13 01:08:52;;;;;;;;;;;8.20;99.90;;;;;;7343439;19;108961;-80
2022/11/13 01:11:21;;;;;;;;;;;8.20;99.90;;;;;;7345928;19;110321;-80
2022/11/13 01:13:48;;;;;;;;;;;8.20;99.90;;;;;;7341126;19;111406;-80
2022/11/13 01:16:16;;;;;;;;;;;8.20;99.90;;;;;;7346185;19;109718;-81
2022/11/13 01:18:43;;;;;;;;;;;8.20;99.90;;;;;;7347564;19;109789;-80
2022/11/13 01:21:12;;;;;;;;;;;8.20;99.90;;;;;;7345547;19;108831;-79
2022/11/13 01:23:39;;;;;;;;;;;8.20;99.90;;;;;;7344166;19;109960;-80
2022/11/13 01:26:12;;;;;;;;;;;8.20;99.90;;;;;;7345000;19;110242;-80
2022/11/13 01:28:41;;;;;;;;;;;8.20;99.90;;;;;;7345859;19;108390;-80
2022/11/13 01:31:10;;;;;;;;;;;8.10;99.90;;;;;;7346022;19;110033;-80
2022/11/13 01:33:37;;;;;;;;;;;8.10;99.90;;;;;;7343293;19;113024;-80
2022/11/13 01:36:06;;;;;;;;;;;8.10;99.90;;;;;;7345088;19;108520;-80
2022/11/13 01:38:33;;;;;;;;;;;8.00;99.90;;;;;;7346607;19;111108;-80
2022/11/13 01:41:03;;;;;;;;;;;8.00;99.90;;;;;;7350892;19;110060;-80
2022/11/13 01:43:32;;;;;;;;;;;7.90;99.90;;;;;;7341832;19;112280;-80
2022/11/13 01:45:59;;;;;;;;;;;7.80;99.90;;;;;;7342311;19;112838;-80
2022/11/13 01:48:30;;;;;;;;;;;7.80;99.90;;;;;;7346136;19;108704;-80
2022/11/13 01:50:57;;;;;;;;;;;7.80;99.90;;;;;;7345280;19;109478;-80
2022/11/13 01:53:25;;;;;;;;;;;7.80;99.90;;;;;;7340674;19;109891;-80
2022/11/13 01:55:52;;;;;;;;;;;7.80;99.90;;;;;;7339168;19;108829;-80
2022/11/13 01:58:19;;;;;;;;;;;7.80;99.90;;;;;;7342767;19;109135;-80
2022/11/13 02:00:46;;;;;;;;;;;7.80;99.90;;;;;;7341359;19;109714;-80
2022/11/13 02:03:15;;;;;;;;;;;7.80;99.90;;;;;;7348562;19;108736;-80
2022/11/13 02:05:42;;;;;;;;;;;7.80;99.90;;;;;;7341251;19;109325;-81
2022/11/13 02:08:09;;;;;;;;;;;7.80;99.90;;;;;;7340473;19;112802;-80
2022/11/13 02:10:36;;;;;;;;;;;7.80;99.90;;;;;;7343414;19;108489;-81
2022/11/13 02:13:03;;;;;;;;;;;7.90;99.90;;;;;;7341775;19;110138;-80
2022/11/13 02:15:31;;;;;;;;;;;7.90;99.90;;;;;;7341515;19;108410;-80
2022/11/13 02:17:59;;;;;;;;;;;7.80;99.90;;;;;;7339111;19;109285;-80
2022/11/13 02:20:31;;;;;;;;;;;7.90;99.90;;;;;;7341576;19;110111;-80
2022/11/13 02:23:07;;;;;;;;;;;7.80;99.90;;;;;;7343237;19;108579;-79
2022/11/13 02:25:35;;;;;;;;;;;7.80;99.90;;;;;;7345446;19;109474;-80
2022/11/13 02:28:02;;;;;;;;;;;7.80;99.90;;;;;;7341987;19;108632;-81
2022/11/13 02:30:30;;;;;;;;;;;7.80;99.90;;;;;;7342549;19;110082;-80
2022/11/13 02:32:57;;;;;;;;;;;7.80;99.90;;;;;;7341104;19;110256;-80
2022/11/13 02:35:27;;;;;;;;;;;7.80;99.90;;;;;;7342850;19;108966;-80
2022/11/13 02:37:55;;;;;;;;;;;7.80;99.90;;;;;;7339944;19;109415;-80
2022/11/13 02:40:23;;;;;;;;;;;7.70;99.90;;;;;;7343655;19;110694;-80
2022/11/13 02:42:50;;;;;;;;;;;7.70;99.90;;;;;;7342924;19;110717;-79
2022/11/13 02:45:16;;;;;;;;;;;7.70;99.90;;;;;;7347837;19;108969;-80
2022/11/13 02:47:43;;;;;;;;;;;7.70;99.90;;;;;;7341484;19;108664;-80
2022/11/13 02:50:10;;;;;;;;;;;7.70;99.90;;;;;;7341332;19;112010;-80
2022/11/13 02:52:37;;;;;;;;;;;7.70;99.90;;;;;;7342842;19;110741;-80
2022/11/13 02:55:05;;;;;;;;;;;7.80;99.90;;;;;;7343557;19;108746;-81
2022/11/13 02:57:32;;;;;;;;;;;7.70;99.90;;;;;;7340547;19;109347;-80
2022/11/13 02:59:59;;;;;;;;;;;7.70;99.90;;;;;;7338307;19;110424;-80
2022/11/13 03:02:25;;;;;;;;;;;7.70;99.90;;;;;;7341141;19;108677;-80
2022/11/13 03:04:52;;;;;;;;;;;7.70;99.90;;;;;;7343602;19;109203;-80
2022/11/13 03:07:39;;;;;;;;;;;7.70;99.90;;;;;;7344811;19;109814;-80
2022/11/13 03:10:07;;;;;;;;;;;7.70;99.90;;;;;;7340602;19;109419;-80
2022/11/13 03:12:34;;;;;;;;;;;7.70;99.90;;;;;;7340876;19;113693;-80
2022/11/13 03:15:00;;;;;;;;;;;7.70;99.90;;;;;;7342341;19;108626;-80
2022/11/13 03:17:29;;;;;;;;;;;7.70;99.90;;;;;;7341187;19;110000;-80
2022/11/13 03:19:56;;;;;;;;;;;7.70;99.90;;;;;;7339450;19;110310;-80
2022/11/13 03:22:23;;;;;;;;;;;7.70;99.90;;;;;;7340287;19;108997;-80
2022/11/13 03:24:50;;;;;;;;;;;7.70;99.90;;;;;;7340463;19;109884;-80
2022/11/13 03:27:17;;;;;;;;;;;7.70;99.90;;;;;;7340187;19;111491;-80
2022/11/13 03:29:44;;;;;;;;;;;7.70;99.90;;;;;;7347384;19;110114;-80
2022/11/13 03:32:11;;;;;;;;;;;7.70;99.90;;;;;;7341381;19;110624;-80
2022/11/13 03:34:38;;;;;;;;;;;7.70;99.90;;;;;;7338247;19;108663;-80
2022/11/13 03:37:05;;;;;;;;;;;7.70;99.90;;;;;;7341317;19;113298;-80
2022/11/13 03:39:32;;;;;;;;;;;7.70;99.90;;;;;;7339617;19;110275;-80
2022/11/13 03:41:59;;;;;;;;;;;7.70;99.90;;;;;;7337053;19;108561;-80
2022/11/13 03:44:26;;;;;;;;;;;7.70;99.90;;;;;;7340622;19;109633;-80
2022/11/13 03:46:53;;;;;;;;;;;7.70;99.90;;;;;;7337003;19;111726;-80
2022/11/13 03:49:19;;;;;;;;;;;7.60;99.90;;;;;;7339559;19;111647;-80
2022/11/13 03:51:46;;;;;;;;;;;7.60;99.90;;;;;;7342887;19;109764;-80
2022/11/13 03:54:13;;;;;;;;;;;7.60;99.90;;;;;;7340645;19;109331;-80
2022/11/13 03:56:40;;;;;;;;;;;7.60;99.90;;;;;;7340218;19;108650;-80
2022/11/13 03:59:07;;;;;;;;;;;7.60;99.90;;;;;;7335830;19;109527;-80
2022/11/13 04:01:34;;;;;;;;;;;7.60;99.90;;;;;;7338384;19;109630;-80
2022/11/13 04:04:01;;;;;;;;;;;7.60;99.90;;;;;;7340028;19;108779;-80
2022/11/13 04:06:28;;;;;;;;;;;7.60;99.90;;;;;;7337382;19;110298;-80
2022/11/13 04:08:55;;;;;;;;;;;7.60;99.90;;;;;;7338690;19;110073;-80
2022/11/13 04:11:22;;;;;;;;;;;7.50;99.90;;;;;;7340520;19;109166;-80
2022/11/13 04:13:48;;;;;;;;;;;7.50;99.90;;;;;;7342644;19;110213;-80
2022/11/13 04:16:15;;;;;;;;;;;7.50;99.90;;;;;;7340853;19;108952;-80
2022/11/13 04:18:42;;;;;;;;;;;7.50;99.90;;;;;;7340362;19;110454;-80
2022/11/13 04:21:09;;;;;;;;;;;7.50;99.90;;;;;;7340769;19;108525;-80
2022/11/13 04:23:36;;;;;;;;;;;7.50;99.90;;;;;;7339679;19;109911;-80
2022/11/13 04:26:03;;;;;;;;;;;7.50;99.90;;;;;;7341122;19;110445;-80
2022/11/13 04:28:30;;;;;;;;;;;7.40;99.90;;;;;;7340127;19;108392;-80
2022/11/13 04:30:57;;;;;;;;;;;7.40;99.90;;;;;;7341415;19;112134;-80
2022/11/13 04:33:24;;;;;;;;;;;7.40;99.90;;;;;;7339325;19;109619;-80
2022/11/13 04:35:51;;;;;;;;;;;7.30;99.90;;;;;;7345297;19;108891;-80
2022/11/13 04:38:18;;;;;;;;;;;7.30;99.90;;;;;;7341768;19;112653;-80
2022/11/13 04:40:48;;;;;;;;;;;7.30;99.90;;;;;;7340204;19;108471;-80
2022/11/13 04:43:14;;;;;;;;;;;7.20;99.90;;;;;;7348176;19;111286;-79
2022/11/13 04:45:41;;;;;;;;;;;7.20;99.90;;;;;;7346171;19;111105;-81
2022/11/13 04:48:08;;;;;;;;;;;7.20;99.90;;;;;;7348459;19;108771;-80
2022/11/13 04:50:35;;;;;;;;;;;7.20;99.90;;;;;;7346778;19;108685;-81
2022/11/13 04:53:02;;;;;;;;;;;7.30;99.90;;;;;;7345442;19;110725;-80
2022/11/13 04:55:29;;;;;;;;;;;7.30;99.90;;;;;;7352113;19;109354;-80
2022/11/13 04:57:56;;;;;;;;;;;7.20;99.90;;;;;;7345790;19;111266;-81
2022/11/13 05:00:23;;;;;;;;;;;7.20;99.90;;;;;;7373532;19;108472;-80
2022/11/13 05:02:50;;;;;;;;;;;7.20;99.90;;;;;;7385367;19;109619;-80
2022/11/13 05:05:16;;;;;;;;;;;7.20;99.90;;;;;;7384555;19;109791;-80
2022/11/13 05:07:43;;;;;;;;;;;7.20;99.90;;;;;;7381401;19;108780;-80
2022/11/13 05:10:10;;;;;;;;;;;7.10;99.90;;;;;;7383879;19;109022;-82
2022/11/13 05:12:37;;;;;;;;;;;7.10;99.90;;;;;;7381381;19;109214;-81
2022/11/13 05:15:04;;;;;;;;;;;7.10;99.90;;;;;;7381663;19;108760;-80
2022/11/13 05:17:31;;;;;;;;;;;7.10;99.90;;;;;;7385374;19;108476;-80
2022/11/13 05:19:58;;;;;;;;;;;7.10;99.90;;;;;;7344973;19;108448;-80
2022/11/13 05:22:25;;;;;;;;;;;7.00;99.90;;;;;;7345933;19;109521;-80
2022/11/13 05:24:52;;;;;;;;;;;7.00;99.90;;;;;;7342971;19;109943;-80
2022/11/13 05:27:19;;;;;;;;;;;7.00;99.90;;;;;;7343362;19;109021;-80
2022/11/13 05:29:46;;;;;;;;;;;7.00;99.90;;;;;;7344180;19;109662;-81
2022/11/13 05:32:12;;;;;;;;;;;7.00;99.90;;;;;;7343260;19;112265;-80
2022/11/13 05:34:39;;;;;;;;;;;6.90;99.90;;;;;;7344343;19;112046;-80
2022/11/13 05:37:06;;;;;;;;;;;6.90;99.90;;;;;;7344373;19;110310;-80
2022/11/13 05:39:33;;;;;;;;;;;6.80;99.90;;;;;;7348278;19;110548;-80
2022/11/13 05:42:00;;;;;;;;;;;6.80;99.90;;;;;;7343662;19;111534;-80
2022/11/13 05:44:27;;;;;;;;;;;6.80;99.90;;;;;;7343145;19;109955;-80
2022/11/13 05:46:54;;;;;;;;;;;6.80;99.90;;;;;;7341031;19;108696;-80
2022/11/13 05:49:21;;;;;;;;;;;6.70;99.90;;;;;;7344095;19;109208;-80
2022/11/13 05:51:47;;;;;;;;;;;6.70;99.90;;;;;;7343331;19;110331;-81
2022/11/13 05:54:14;;;;;;;;;;;6.70;99.90;;;;;;7339499;19;108458;-80
2022/11/13 05:56:41;;;;;;;;;;;6.60;99.90;;;;;;7345483;19;108471;-80
2022/11/13 05:59:08;;;;;;;;;;;6.60;99.90;;;;;;7341667;19;110498;-79
2022/11/13 06:01:36;;;;;;;;;;;6.60;99.90;;;;;;7349940;19;108884;-80
2022/11/13 06:04:04;;;;;;;;;;;6.50;99.90;;;;;;7344113;19;110592;-80
2022/11/13 06:06:31;;;;;;;;;;;6.60;99.90;;;;;;7342878;19;109136;-80
2022/11/13 06:08:59;;;;;;;;;;;6.50;99.90;;;;;;7342313;19;109526;-80
2022/11/13 06:11:26;;;;;;;;;;;6.50;99.90;;;;;;7339272;19;110752;-80
2022/11/13 06:13:54;;;;;;;;;;;6.50;99.90;;;;;;7340939;19;109721;-80
2022/11/13 06:16:25;;;;;;;;;;;6.50;99.90;;;;;;7342538;19;109545;-80
2022/11/13 06:18:59;;;;;;;;;;;6.50;99.90;;;;;;7339729;19;110317;-80
2022/11/13 06:21:27;;;;;;;;;;;6.60;99.90;;;;;;7342185;19;108554;-80
2022/11/13 06:23:55;;;;;;;;;;;6.60;99.90;;;;;;7347404;19;110260;-80
2022/11/13 06:26:24;;;;;;;;;;;6.50;99.90;;;;;;7342517;19;109221;-79
2022/11/13 06:28:51;;;;;;;;;;;6.50;99.90;;;;;;7338750;19;111583;-80
2022/11/13 06:31:19;;;;;;;;;;;6.40;99.90;;;;;;7342646;19;110337;-80
2022/11/13 06:33:46;;;;;;;;;;;6.40;99.90;;;;;;7339337;19;108448;-80
2022/11/13 06:36:15;;;;;;;;;;;6.50;99.90;;;;;;7341720;19;109980;-80
2022/11/13 06:38:42;;;;;;;;;;;6.50;99.90;;;;;;7338672;19;110545;-80
2022/11/13 06:41:10;;;;;;;;;;;6.50;99.90;;;;;;7342648;19;108873;-80
2022/11/13 06:43:37;;;;;;;;;;;6.40;99.90;;;;;;7341901;19;112783;-80
2022/11/13 06:46:05;;;;;;;;;;;6.40;99.90;;;;;;7347894;19;110262;-80
2022/11/13 06:48:32;;;;;;;;;;;6.30;99.90;;;;;;7340405;19;108961;-80
2022/11/13 06:51:01;;;;;;;;;;;6.30;99.90;;;;;;7342270;19;112635;-80
2022/11/13 06:53:28;;;;;;;;;;;6.40;99.90;;;;;;7343621;19;109323;-79
2022/11/13 06:55:55;;;;;;;;;;;6.40;99.90;;;;;;7343742;19;110053;-80
2022/11/13 06:58:22;;;;;;;;;;;6.40;99.90;;;;;;7340557;19;110253;-80
2022/11/13 07:00:49;;;;;;;;;;;6.40;99.90;;;;;;7340876;19;108290;-80
2022/11/13 07:03:17;;;;;;;;;;;6.30;99.90;;;;;;7343029;19;109294;-80
2022/11/13 07:05:44;;;;;;;;;;;6.30;99.90;;;;;;7344580;19;112831;-79
2022/11/13 07:08:12;;;;;;;;;;;6.30;99.90;;;;;;7340499;19;109393;-80
2022/11/13 07:10:39;;;;;;;;;;;6.30;99.90;;;;;;7342281;19;110264;-80
2022/11/13 07:13:06;;;;;;;;;;;6.30;99.90;;;;;;7341449;19;108673;-80
2022/11/13 07:15:37;;;;;;;;;;;6.30;99.90;;;;;;7341269;19;109038;-80
2022/11/13 07:18:05;;;;;;;;;;;6.30;99.90;;;;;;7342914;19;110249;-80
2022/11/13 07:20:32;;;;;;;;;;;6.30;99.90;;;;;;7340187;19;109884;-80
2022/11/13 07:23:00;;;;;;;;;;;6.40;99.90;;;;;;7340201;19;109637;-79
2022/11/13 07:25:27;;;;;;;;;;;6.40;99.90;;;;;;7338990;19;109856;-80
2022/11/13 07:27:54;;;;;;;;;;;6.40;99.90;;;;;;7345911;19;108467;-80
2022/11/13 07:30:21;;;;;;;;;;;6.40;99.90;;;;;;7340303;19;110668;-80
2022/11/13 07:32:48;;;;;;;;;;;6.40;99.90;;;;;;7340364;19;108450;-80
2022/11/13 07:35:15;;;;;;;;;;;6.40;99.90;;;;;;7343155;19;109566;-80
2022/11/13 07:37:42;;;;;;;;;;;6.50;99.90;;;;;;7339522;19;113382;-80
2022/11/13 07:40:10;;;;;;;;;;;6.50;99.90;;;;;;7340706;19;109278;-80
2022/11/13 07:42:37;;;;;;;;;;;6.60;99.90;;;;;;7339626;19;110127;-81
2022/11/13 07:45:05;;;;;;;;;;;6.60;99.90;;;;;;7340390;19;112926;-80
2022/11/13 07:47:31;;;;;;;;;;;6.70;99.90;;;;;;7339357;19;108699;-80
2022/11/13 07:49:58;;;;;;;;;;;6.70;99.90;;;;;;7343593;19;109690;-81
2022/11/13 07:52:33;;;;;;;;;;;6.80;99.90;;;;;;7339693;19;109495;-81
2022/11/13 07:55:00;;;;;;;;;;;6.80;99.90;;;;;;7339773;19;108808;-81
2022/11/13 07:57:27;;;;;;;;;;;6.80;99.90;;;;;;7339006;19;110273;-81
2022/11/13 07:59:54;;;;;;;;;;;6.90;99.90;;;;;;7338930;19;108722;-82
2022/11/13 08:02:21;;;;;;;;;;;6.90;99.90;;;;;;7338760;19;110520;-81
2022/11/13 08:04:52;;;;;;;;;;;6.90;99.90;;;;;;7335870;19;110163;-81
2022/11/13 08:07:19;;;;;;;;;;;7.00;99.90;;;;;;7339628;19;109742;-82
2022/11/13 08:09:46;;;;;;;;;;;7.00;99.90;;;;;;7338046;19;108313;-80
2022/11/13 08:12:13;;;;;;;;;;;7.10;99.90;;;;;;7344580;19;109439;-82
2022/11/13 08:14:40;;;;;;;;;;;7.10;99.90;;;;;;7337791;19;111592;-81
2022/11/13 08:17:07;;;;;;;;;;;7.10;99.90;;;;;;7334947;19;110706;-83
2022/11/13 08:19:34;;;;;;;;;;;7.20;99.90;;;;;;7336650;19;108561;-82
2022/11/13 08:22:00;;;;;;;;;;;7.30;99.90;;;;;;7341764;19;108788;-81
2022/11/13 08:24:27;;;;;;;;;;;7.30;99.90;;;;;;7337127;19;113934;-81
2022/11/13 08:26:54;;;;;;;;;;;7.40;99.90;;;;;;7339600;19;108432;-82
2022/11/13 08:29:21;;;;;;;;;;;7.40;99.90;;;;;;7336741;19;109230;-82
2022/11/13 08:31:48;;;;;;;;;;;7.40;99.90;;;;;;7337974;19;110243;-81
2022/11/13 08:34:15;;;;;;;;;;;7.50;99.90;;;;;;7343323;19;109003;-81
2022/11/13 08:36:42;;;;;;;;;;;7.60;99.90;;;;;;7339618;19;109661;-81
2022/11/13 08:39:09;;;;;;;;;;;7.70;99.90;;;;;;7336858;19;109399;-82
2022/11/13 08:41:36;;;;;;;;;;;7.80;99.90;;;;;;7336974;19;111536;-82
2022/11/13 08:44:03;;;;;;;;;;;7.90;99.90;;;;;;7339617;19;110210;-83
2022/11/13 08:46:30;;;;;;;;;;;8.00;99.90;;;;;;7334615;19;109589;-83
2022/11/13 08:48:56;;;;;;;;;;;8.00;99.90;;;;;;7332924;19;112369;-82
2022/11/13 08:53:56;;;;;;;;;;;8.20;99.90;;;;;;7330133;19;109132;-67
2022/11/13 08:56:23;;;;;;;;;;;8.30;99.90;;;;;;7335168;19;108906;-67
2022/11/13 08:58:50;;;;;;;;;;;8.30;99.90;;;;;;7332781;19;108890;-67
2022/11/13 09:01:17;;;;;;;;;;;8.40;99.90;;;;;;7333550;19;108962;-67
2022/11/13 09:03:43;;;;;;;;;;;8.60;99.90;;;;;;7331789;19;109172;-67
2022/11/13 09:06:10;;;;;;;;;;;8.70;99.90;;;;;;7332604;19;109676;-68
2022/11/13 09:08:37;;;;;;;;;;;8.80;99.90;;;;;;7332487;19;108931;-67
2022/11/13 09:11:04;;;;;;;;;;;8.90;99.90;;;;;;7333210;19;110731;-68
2022/11/13 09:13:32;;;;;;;;;;;9.00;99.90;;;;;;7333708;19;108815;-68
2022/11/13 09:16:00;;;;;;;;;;;9.10;99.90;;;;;;7340016;19;108722;-72
2022/11/13 09:18:27;;;;;;;;;;;9.10;99.90;;;;;;7332645;19;108629;-71
2022/11/13 09:20:59;;;;;;;;;;;9.10;99.90;;;;;;7329911;19;108870;-74
2022/11/13 09:23:27;;;;;;;;;;;9.10;99.90;;;;;;7334720;19;109530;-76
2022/11/13 09:25:54;;;;;;;;;;;9.20;99.90;;;;;;7332253;19;108887;-68
2022/11/13 09:28:21;;;;;;;;;;;9.20;99.90;;;;;;7338630;19;109219;-68
2022/11/13 09:30:48;;;;;;;;;;;9.30;99.90;;;;;;7341878;19;111084;-68
2022/11/13 09:33:15;;;;;;;;;;;9.30;99.90;;;;;;7342803;19;108800;-67
2022/11/13 09:35:42;;;;;;;;;;;9.30;99.90;;;;;;7342057;19;109381;-68
2022/11/13 09:38:10;;;;;;;;;;;9.40;99.90;;;;;;7348753;19;109811;-67
2022/11/13 09:40:56;;;;;;;;;;;9.50;99.90;;;;;;7341915;19;109613;-67
2022/11/13 09:43:30;;;;;;;;;;;9.60;99.90;;;;;;7341192;19;109137;-67
2022/11/13 09:46:03;;;;;;;;;;;9.80;99.90;;;;;;7342794;19;108445;-67
2022/11/13 09:48:41;;;;;;;;;;;9.80;99.90;;;;;;7344108;19;109140;-67
2022/11/13 09:51:15;;;;;;;;;;;9.90;99.90;;;;;;7345232;19;111313;-67
2022/11/13 09:53:42;;;;;;;;;;;10.00;99.90;;;;;;7342212;19;108477;-67
2022/11/13 09:56:31;;;;;;;;;;;10.20;99.90;;;;;;7342451;19;108480;-68
2022/11/13 09:58:58;;;;;;;;;;;10.40;99.90;;;;;;7340790;19;110757;-67
2022/11/13 10:01:28;;;;;;;;;;;10.50;99.90;;;;;;7346583;19;108505;-67
2022/11/13 10:03:58;;;;;;;;;;;10.60;99.90;;;;;;7339126;19;109281;-67
2022/11/13 10:06:31;;;;;;;;;;;10.80;99.90;;;;;;7339145;19;108323;-67
2022/11/13 10:09:16;;;;;;;;;;;10.80;99.90;;;;;;7341918;19;109470;-67
2022/11/13 10:11:53;;;;;;;;;;;11.00;99.90;;;;;;7340640;19;109485;-67
2022/11/13 10:14:22;;;;;;;;;;;11.10;99.90;;;;;;7340066;19;108612;-74
2022/11/13 10:16:56;;;;;;;;;;;11.20;99.90;;;;;;7339064;19;109843;-74
2022/11/13 10:19:30;;;;;;;;;;;11.40;99.90;;;;;;7337529;19;109590;-74
2022/11/13 10:21:57;;;;;;;;;;;11.50;99.90;;;;;;7338394;19;108756;-74
2022/11/13 10:24:45;;;;;;;;;;;11.70;99.90;;;;;;7339380;19;111290;-74
2022/11/13 10:27:13;;;;;;;;;;;11.80;99.90;;;;;;7330728;19;110558;-74
2022/11/13 10:29:40;;;;;;;;;;;12.00;99.90;;;;;;7339375;19;109959;-74
2022/11/13 10:32:19;;;;;;;;;;;12.10;99.90;;;;;;7338602;19;110321;-75
2022/11/13 10:34:49;;;;;;;;;;;12.20;99.90;;;;;;7339416;19;108781;-73
2022/11/13 10:37:21;;;;;;;;;;;12.30;99.90;;;;;;7340324;19;109818;-77
2022/11/13 10:39:47;;;;;;;;;;;12.40;99.90;;;;;;7332693;19;111629;-74
2022/11/13 10:42:22;;;;;;;;;;;12.50;99.90;;;;;;7335819;19;109246;-75
2022/11/13 10:44:53;;;;;;;;;;;12.50;99.90;;;;;;7337293;19;108788;-75
2022/11/13 10:47:24;;;;;;;;;;;12.50;99.90;;;;;;7343098;19;110016;-75
2022/11/13 10:50:11;;;;;;;;;;;12.50;99.90;;;;;;7340022;19;109402;-75
2022/11/13 10:52:47;;;;;;;;;;;12.60;99.90;;;;;;7331990;19;110257;-73
2022/11/13 10:55:17;;;;;;;;;;;12.60;99.90;;;;;;7337832;19;108423;-74
2022/11/13 10:57:53;;;;;;;;;;;12.60;99.90;;;;;;7337412;19;109307;-74
2022/11/13 11:00:24;;;;;;;;;;;12.80;99.90;;;;;;7337049;19;110034;-74
2022/11/13 11:02:51;;;;;;;;;;;12.90;99.90;;;;;;7337483;19;108847;-73
2022/11/13 11:05:19;;;;;;;;;;;13.10;99.90;;;;;;7338149;19;110200;-76
2022/11/13 11:07:46;;;;;;;;;;;13.30;99.90;;;;;;7334369;19;110279;-75
2022/11/13 11:10:27;;;;;;;;;;;13.40;99.90;;;;;;7342010;19;109840;-75
2022/11/13 11:13:11;;;;;;;;;;;13.60;99.90;;;;;;7334474;19;110851;-75
2022/11/13 11:15:58;;;;;;;;;;;13.80;99.90;;;;;;7333610;19;108871;-75
2022/11/13 11:18:27;;;;;;;;;;;14.00;99.90;;;;;;7336606;19;109237;-76
2022/11/13 11:21:00;;;;;;;;;;;14.20;99.90;;;;;;7331376;19;110298;-75
2022/11/13 11:23:27;;;;;;;;;;;14.40;99.90;;;;;;7337191;19;111402;-76
2022/11/13 11:26:20;;;;;;;;;;;14.50;99.90;;;;;;7335642;19;112323;-75
2022/11/13 11:29:06;;;;;;;;;;;14.60;99.90;;;;;;7333058;19;109675;-76
2022/11/13 11:31:45;;;;;;;;;;;14.80;99.90;;;;;;7338118;19;108707;-76
2022/11/13 11:34:24;;;;;;;;;;;14.90;99.90;;;;;;7336341;19;109825;-73
2022/11/13 11:36:51;;;;;;;;;;;15.10;99.90;;;;;;7333423;19;108585;-73
2022/11/13 11:39:18;;;;;;;;;;;15.20;99.90;;;;;;7335464;19;108974;-73
2022/11/13 11:41:51;;;;;;;;;;;15.30;99.90;;;;;;7332881;19;110588;-73
2022/11/13 11:44:38;;;;;;;;;;;15.40;99.90;;;;;;7334912;19;109409;-73
2022/11/13 11:47:11;;;;;;;;;;;15.40;99.90;;;;;;7337356;19;109308;-73
2022/11/13 11:49:44;;;;;;;;;;;15.60;99.90;;;;;;7333108;19;110722;-73
2022/11/13 11:52:30;;;;;;;;;;;15.70;99.90;;;;;;7330791;19;109332;-73
2022/11/13 11:55:00;;;;;;;;;;;15.70;99.90;;;;;;7337295;19;110460;-73
2022/11/13 11:57:45;;;;;;;;;;;15.80;99.90;;;;;;7334592;19;109049;-73
2022/11/13 12:00:13;;;;;;;;;;;15.90;99.90;;;;;;7333566;19;109999;-73
2022/11/13 12:03:00;;;;;;;;;;;15.80;99.90;;;;;;7329424;19;110186;-73
2022/11/13 12:05:31;;;;;;;;;;;16.00;99.90;;;;;;7335535;19;110201;-84
2022/11/13 12:08:07;;;;;;;;;;;16.10;99.90;;;;;;7336845;19;110696;-81
2022/11/13 12:10:53;;;;;;;;;;;16.20;99.90;;;;;;7336146;19;110984;-81
2022/11/13 12:13:31;;;;;;;;;;;16.30;99.90;;;;;;7337354;19;108635;-81
2022/11/13 12:16:01;;;;;;;;;;;16.40;99.90;;;;;;7335529;19;109480;-82
2022/11/13 12:18:38;;;;;;;;;;;16.50;99.90;;;;;;7345215;19;110430;-81
2022/11/13 12:21:20;;;;;;;;;;;16.70;99.90;;;;;;7338300;19;109705;-81
2022/11/13 12:23:47;;;;;;;;;;;16.90;99.90;;;;;;7335982;19;109435;-82
2022/11/13 12:26:29;;;;;;;;;;;17.00;99.90;;;;;;7341198;19;108685;-83
2022/11/13 12:29:09;;;;;;;;;;;17.20;99.90;;;;;;7337089;19;110106;-82
2022/11/13 12:31:43;;;;;;;;;;;17.30;99.90;;;;;;7339575;19;110547;-82
2022/11/13 12:34:10;;;;;;;;;;;17.40;99.90;;;;;;7336952;19;110798;-82
2022/11/13 12:36:37;;;;;;;;;;;17.50;99.90;;;;;;7337731;19;109924;-82
2022/11/13 12:39:04;;;;;;;;;;;17.60;99.90;;;;;;7339531;19;110287;-84
2022/11/13 12:41:53;;;;;;;;;;;17.70;99.90;;;;;;7344574;19;108736;-82
2022/11/13 12:44:27;;;;;;;;;;;17.80;99.90;;;;;;7337716;19;110373;-82
2022/11/13 12:46:55;;;;;;;;;;;17.90;99.90;;;;;;7339480;19;108705;-81
2022/11/13 12:49:22;;;;;;;;;;;18.00;99.90;;;;;;7340220;19;109581;-84
2022/11/13 12:51:56;;;;;;;;;;;18.00;99.90;;;;;;7335954;19;110850;-82
2022/11/13 12:54:24;;;;;;;;;;;18.10;99.90;;;;;;7337159;19;108427;-82
2022/11/13 12:56:51;;;;;;;;;;;18.20;99.90;;;;;;7336773;19;109343;-82
2022/11/13 12:59:19;;;;;;;;;;;18.20;99.90;;;;;;7337334;19;110218;-82
2022/11/13 13:02:07;;;;;;;;;;;18.30;99.90;;;;;;7342502;19;108635;-82
2022/11/13 13:04:37;;;;;;;;;;;18.40;99.90;;;;;;7350733;19;108628;-82
2022/11/13 13:07:16;;;;;;;;;;;18.40;99.90;;;;;;7346199;19;109041;-82
2022/11/13 13:09:49;;;;;;;;;;;18.50;99.90;;;;;;7345296;19;112454;-82
2022/11/13 13:12:31;;;;;;;;;;;18.50;99.90;;;;;;7345509;19;110622;-82
2022/11/13 13:15:18;;;;;;;;;;;18.60;99.90;;;;;;7343713;19;108799;-82
2022/11/13 13:17:45;;;;;;;;;;;18.60;99.90;;;;;;7343180;19;109673;-84
2022/11/13 13:20:15;;;;;;;;;;;18.60;99.90;;;;;;7346466;19;111085;-82
2022/11/13 13:22:42;;;;;;;;;;;18.70;99.90;;;;;;7345259;19;108835;-82
2022/11/13 13:25:21;;;;;;;;;;;18.70;99.90;;;;;;7350242;19;109822;-84
2022/11/13 13:28:01;;;;;;;;;;;18.80;99.90;;;;;;7345569;19;108473;-84
2022/11/13 13:30:32;;;;;;;;;;;18.80;99.90;;;;;;7343308;19;111975;-84
2022/11/13 13:33:18;;;;;;;;;;;18.70;99.90;;;;;;7343672;19;110095;-84
2022/11/13 13:35:53;;;;;;;;;;;18.80;99.90;;;;;;7343188;19;108547;-84
2022/11/13 13:38:28;;;;;;;;;;;18.90;99.90;;;;;;7344106;19;111915;-85
2022/11/13 13:41:15;;;;;;;;;;;19.00;99.90;;;;;;7346318;19;110476;-84
2022/11/13 13:43:50;;;;;;;;;;;18.90;99.90;;;;;;7342872;19;108722;-83
2022/11/13 13:46:28;;;;;;;;;;;18.90;99.90;;;;;;7344872;19;108734;-84
2022/11/13 13:49:00;;;;;;;;;;;19.00;99.90;;;;;;7348567;19;109332;-84
2022/11/13 13:51:30;;;;;;;;;;;19.00;99.90;;;;;;7344068;19;109697;-81
2022/11/13 13:53:58;;;;;;;;;;;18.90;99.90;;;;;;7342686;19;112696;-81
2022/11/13 13:56:25;;;;;;;;;;;18.90;99.90;;;;;;7343301;19;109783;-82
2022/11/13 13:58:52;;;;;;;;;;;18.90;99.90;;;;;;7344091;19;108411;-83
2022/11/13 14:01:29;;;;;;;;;;;19.00;99.90;;;;;;7342641;19;109502;-84
2022/11/13 14:04:11;;;;;;;;;;;19.00;99.90;;;;;;7344681;19;108792;-83
2022/11/13 14:06:49;;;;;;;;;;;19.00;99.90;;;;;;7345137;19;109140;-83
2022/11/13 14:09:18;;;;;;;;;;;19.10;99.90;;;;;;7343405;19;110718;-83
2022/11/13 14:11:46;;;;;;;;;;;19.20;99.90;;;;;;7348739;19;108878;-84
2022/11/13 14:14:18;;;;;;;;;;;19.20;99.90;;;;;;7340791;19;111489;-84
2022/11/13 14:16:46;;;;;;;;;;;19.30;99.90;;;;;;7343786;19;108665;-83
2022/11/13 14:19:12;;;;;;;;;;;19.30;99.90;;;;;;7344000;19;109608;-83
2022/11/13 14:25:24;;;;;;;;;;;19.30;99.90;;;;;;7338889;19;108345;-78
2022/11/13 14:27:51;;;;;;;;;;;19.60;99.90;;;;;;7341233;19;109126;-77
2022/11/13 14:30:25;;;;;;;;;;;19.90;99.90;;;;;;7341556;19;110395;-76
2022/11/13 14:32:53;;;;;;;;;;;20.10;99.90;;;;;;7334985;19;109909;-76
2022/11/13 14:35:21;;;;;;;;;;;20.30;99.90;;;;;;7346320;19;111815;-76